createdAt,value
2018-05-02T00:02:25.867Z,5.71
2018-05-02T00:04:54.915Z,5.72
2018-05-02T00:07:23.724Z,5.68
2018-05-02T00:09:52.032Z,5.76
2018-05-02T00:12:20.307Z,5.93
2018-05-02T00:14:48.674Z,5.89
2018-05-02T00:17:16.943Z,6.24
2018-05-02T00:19:45.222Z,6.46
2018-05-02T00:22:14.235Z,6.43
2018-05-02T00:24:42.516Z,6.57
2018-05-02T00:27:11.252Z,6.94
2018-05-02T00:29:39.583Z,7.23
2018-05-02T00:32:07.867Z,7.11
2018-05-02T00:34:36.143Z,6.87
2018-05-02T00:37:04.492Z,6.82
2018-05-02T00:39:32.791Z,6.79
2018-05-02T00:42:01.068Z,6.73
2018-05-02T00:44:29.432Z,6.81
2018-05-02T00:46:57.734Z,6.76
2018-05-02T00:49:26.102Z,6.64
2018-05-02T00:51:55.679Z,6.63
2018-05-02T00:54:25.080Z,6.76
2018-05-02T00:56:53.646Z,6.73
2018-05-02T00:59:23.289Z,6.74
2018-05-02T01:01:51.574Z,6.82
2018-05-02T01:04:19.862Z,6.74
2018-05-02T01:06:49.341Z,6.86
2018-05-02T01:09:19.803Z,6.83
2018-05-02T01:11:48.089Z,6.82
2018-05-02T01:14:17.864Z,6.82
2018-05-02T01:16:46.266Z,6.92
2018-05-02T01:19:15.380Z,6.96
2018-05-02T01:21:43.850Z,7.07
2018-05-02T01:24:12.153Z,7.14
2018-05-02T01:26:41.088Z,7.25
2018-05-02T01:29:09.402Z,7.33
2018-05-02T01:31:38.227Z,7.48
2018-05-02T01:34:06.562Z,7.55
2018-05-02T01:36:34.846Z,7.41
2018-05-02T01:39:03.137Z,7.54
2018-05-02T01:41:31.449Z,7.74
2018-05-02T01:43:59.827Z,7.71
2018-05-02T01:46:28.933Z,7.64
2018-05-02T01:49:14.693Z,7.59
2018-05-02T01:51:42.975Z,7.48
2018-05-02T01:54:11.804Z,7.49
2018-05-02T01:56:40.118Z,7.40
2018-05-02T01:59:08.387Z,7.47
2018-05-02T02:01:36.722Z,7.60
2018-05-02T02:04:05.007Z,7.63
2018-05-02T02:06:34.044Z,7.53
2018-05-02T02:09:02.326Z,7.37
2018-05-02T02:11:31.023Z,7.33
2018-05-02T02:13:59.303Z,7.40
2018-05-02T02:16:28.509Z,7.71
2018-05-02T02:18:56.843Z,7.85
2018-05-02T02:21:25.127Z,7.79
2018-05-02T02:23:53.409Z,7.81
2018-05-02T02:26:21.716Z,7.80
2018-05-02T02:28:50.004Z,8.02
2018-05-02T02:31:18.456Z,8.06
2018-05-02T02:33:46.747Z,7.84
2018-05-02T02:36:15.535Z,7.81
2018-05-02T02:38:43.847Z,7.94
2018-05-02T02:41:12.124Z,7.91
2018-05-02T02:43:40.444Z,7.79
2018-05-02T02:46:08.729Z,7.76
2018-05-02T02:48:37.022Z,7.73
2018-05-02T02:51:05.342Z,7.77
2018-05-02T02:53:34.384Z,7.84
2018-05-02T02:56:02.666Z,7.86
2018-05-02T02:58:30.979Z,7.89
2018-05-02T03:00:59.943Z,7.88
2018-05-02T03:03:28.220Z,7.88
2018-05-02T03:05:56.535Z,7.89
2018-05-02T03:08:24.810Z,7.98
2018-05-02T03:10:53.091Z,8.16
2018-05-02T03:13:21.395Z,8.31
2018-05-02T03:15:49.702Z,8.44
2018-05-02T03:18:17.998Z,8.20
2018-05-02T03:20:46.279Z,8.03
2018-05-02T03:23:14.616Z,8.00
2018-05-02T03:25:43.288Z,7.98
2018-05-02T03:28:11.602Z,7.83
2018-05-02T03:30:40.172Z,8.00
2018-05-02T03:33:08.505Z,8.14
2018-05-02T03:35:37.705Z,7.95
2018-05-02T03:38:06.302Z,7.88
2018-05-02T03:40:35.451Z,7.87
2018-05-02T03:43:04.152Z,7.77
2018-05-02T03:45:32.495Z,7.87
2018-05-02T03:48:00.777Z,7.95
2018-05-02T03:50:29.145Z,8.04
2018-05-02T03:52:57.527Z,7.89
2018-05-02T03:55:25.958Z,7.63
2018-05-02T03:57:54.325Z,7.67
2018-05-02T04:00:40.215Z,7.61
2018-05-02T04:03:26.230Z,7.58
2018-05-02T04:19:33.719Z,8.05
2018-05-02T04:22:07.838Z,7.99
2018-05-02T04:24:37.491Z,7.93
2018-05-02T04:27:07.382Z,8.03
2018-05-02T04:29:36.433Z,8.10
2018-05-02T04:32:05.459Z,7.83
2018-05-02T04:34:33.982Z,7.82
2018-05-02T04:37:02.953Z,7.94
2018-05-02T04:39:31.134Z,8.14
2018-05-02T04:41:59.415Z,8.18
2018-05-02T04:44:27.701Z,8.33
2018-05-02T04:46:56.456Z,8.35
2018-05-02T04:49:24.738Z,8.48
2018-05-02T04:51:53.019Z,8.52
2018-05-02T04:54:21.354Z,8.54
2018-05-02T04:56:50.394Z,8.41
2018-05-02T04:59:18.667Z,8.46
2018-05-02T05:01:47.539Z,8.43
2018-05-02T05:04:15.831Z,8.46
2018-05-02T05:06:44.596Z,8.42
2018-05-02T05:09:12.827Z,8.58
2018-05-02T05:11:41.728Z,8.52
2018-05-02T05:14:10.077Z,8.39
2018-05-02T05:16:38.355Z,8.39
2018-05-02T05:19:07.916Z,8.42
2018-05-02T05:21:36.030Z,8.43
2018-05-02T05:24:04.311Z,8.38
2018-05-02T05:26:32.651Z,8.52
2018-05-02T05:29:00.943Z,8.66
2018-05-02T05:31:30.177Z,8.88
2018-05-02T05:33:58.479Z,8.99
2018-05-02T05:36:27.383Z,8.62
2018-05-02T05:38:55.695Z,8.74
2018-05-02T05:41:24.023Z,8.63
2018-05-02T05:43:52.334Z,8.62
2018-05-02T05:46:20.655Z,8.67
2018-05-02T05:48:49.050Z,8.72
2018-05-02T05:51:17.682Z,8.79
2018-05-02T05:53:46.360Z,8.87
2018-05-02T05:56:15.298Z,9.01
2018-05-02T05:58:43.576Z,9.17
2018-05-02T06:01:11.911Z,9.56
2018-05-02T06:03:40.191Z,9.67
2018-05-02T06:06:08.558Z,9.62
2018-05-02T06:08:36.930Z,9.92
2018-05-02T06:11:05.229Z,10.15
2018-05-02T06:13:33.802Z,9.92
2018-05-02T06:16:02.127Z,9.78
2018-05-02T06:18:30.417Z,10.03
2018-05-02T06:20:58.697Z,10.21
2018-05-02T06:23:27.283Z,10.06
2018-05-02T06:25:55.559Z,10.13
2018-05-02T06:28:24.444Z,10.26
2018-05-02T06:30:52.806Z,10.34
2018-05-02T06:33:21.095Z,10.14
2018-05-02T06:35:49.427Z,9.90
2018-05-02T06:38:17.711Z,10.23
2018-05-02T06:40:45.996Z,10.50
2018-05-02T06:43:14.317Z,10.45
2018-05-02T06:45:42.600Z,10.31
2018-05-02T06:48:10.878Z,10.45
2018-05-02T06:50:39.206Z,10.79
2018-05-02T06:53:07.491Z,10.73
2018-05-02T06:55:35.831Z,10.95
2018-05-02T06:58:04.160Z,11.02
2018-05-02T07:00:32.439Z,10.98
2018-05-02T07:03:00.719Z,10.90
2018-05-02T07:05:29.656Z,11.11
2018-05-02T07:07:57.939Z,10.91
2018-05-02T07:10:26.223Z,10.87
2018-05-02T07:12:55.235Z,10.87
2018-05-02T07:15:23.454Z,10.92
2018-05-02T07:17:51.757Z,10.86
2018-05-02T07:20:20.085Z,10.82
2018-05-02T07:22:48.451Z,10.93
2018-05-02T07:25:16.760Z,10.97
2018-05-02T07:27:45.178Z,11.00
2018-05-02T07:30:13.931Z,11.13
2018-05-02T07:32:42.319Z,11.28
2018-05-02T07:35:11.015Z,11.71
2018-05-02T07:37:39.383Z,11.75
2018-05-02T07:40:07.674Z,11.88
2018-05-02T07:42:36.015Z,11.73
2018-05-02T07:45:04.391Z,11.82
2018-05-02T07:47:32.714Z,11.79
2018-05-02T07:50:00.994Z,12.05
2018-05-02T07:52:29.899Z,12.08
2018-05-02T07:54:58.719Z,11.64
2018-05-02T07:57:27.493Z,11.68
2018-05-02T07:59:57.235Z,11.56
2018-05-02T08:02:25.578Z,11.68
2018-05-02T08:04:53.859Z,11.58
2018-05-02T08:07:22.157Z,12.21
2018-05-02T08:09:51.294Z,11.84
2018-05-02T08:12:19.578Z,12.37
2018-05-02T08:14:47.862Z,12.79
2018-05-02T08:17:16.319Z,13.21
2018-05-02T08:19:46.097Z,13.92
2018-05-02T08:22:14.436Z,15.04
2018-05-02T08:24:42.790Z,16.35
2018-05-02T08:27:11.711Z,14.71
2018-05-02T08:29:40.139Z,15.45
2018-05-02T08:32:08.555Z,15.91
2018-05-02T08:34:37.386Z,15.77
2018-05-02T08:37:05.679Z,16.70
2018-05-02T08:39:33.919Z,17.20
2018-05-02T08:42:02.075Z,17.84
2018-05-02T08:44:30.871Z,17.03
2018-05-02T08:46:59.678Z,19.56
2018-05-02T08:49:27.961Z,20.17
2018-05-02T08:51:56.410Z,20.74
2018-05-02T08:54:24.705Z,19.53
2018-05-02T08:56:53.622Z,17.85
2018-05-02T08:59:21.943Z,17.14
2018-05-02T09:01:50.257Z,17.75
2018-05-02T09:04:18.522Z,18.76
2018-05-02T09:06:46.833Z,20.14
2018-05-02T09:09:15.112Z,18.62
2018-05-02T09:11:44.014Z,17.94
2018-05-02T09:14:12.298Z,17.51
2018-05-02T09:16:40.575Z,17.43
2018-05-02T09:19:09.415Z,18.06
2018-05-02T09:21:37.699Z,19.25
2018-05-02T09:24:06.168Z,17.85
2018-05-02T09:26:34.511Z,17.28
2018-05-02T09:29:02.834Z,18.26
2018-05-02T09:31:31.119Z,18.20
2018-05-02T09:33:59.879Z,19.72
2018-05-02T09:36:28.918Z,18.65
2018-05-02T09:38:57.622Z,17.83
2018-05-02T09:41:25.926Z,17.33
2018-05-02T09:43:54.239Z,17.30
2018-05-02T09:46:22.722Z,17.31
2018-05-02T09:48:51.191Z,17.41
2018-05-02T09:51:19.473Z,17.66
2018-05-02T09:53:48.507Z,17.06
2018-05-02T09:56:16.822Z,17.60
2018-05-02T09:58:45.103Z,16.51
2018-05-02T10:01:13.402Z,16.67
2018-05-02T10:03:41.726Z,16.38
2018-05-02T10:06:10.012Z,15.59
2018-05-02T10:08:39.061Z,15.50
2018-05-02T10:11:07.405Z,15.31
2018-05-02T10:13:36.457Z,15.22
2018-05-02T10:16:05.334Z,15.43
2018-05-02T10:18:33.478Z,15.55
2018-05-02T10:21:01.751Z,15.58
2018-05-02T10:23:30.341Z,16.46
2018-05-02T10:25:59.042Z,16.42
2018-05-02T10:28:27.326Z,15.82
2018-05-02T10:30:55.692Z,16.67
2018-05-02T10:33:24.747Z,16.91
2018-05-02T10:35:53.829Z,17.35
2018-05-02T10:38:22.107Z,17.49
2018-05-02T10:40:50.438Z,17.60
2018-05-02T10:43:18.722Z,17.52
2018-05-02T10:45:47.027Z,17.86
2018-05-02T10:48:15.554Z,17.27
2018-05-02T10:50:43.830Z,17.43
2018-05-02T10:53:12.110Z,18.17
2018-05-02T10:55:40.339Z,19.28
2018-05-02T10:58:08.626Z,20.36
2018-05-02T11:00:36.899Z,20.36
2018-05-02T11:03:05.231Z,21.29
2018-05-02T11:05:33.507Z,21.04
2018-05-02T11:08:01.859Z,22.17
2018-05-02T11:10:30.052Z,21.00
2018-05-02T11:12:58.337Z,20.61
2018-05-02T11:15:26.613Z,20.71
2018-05-02T11:17:54.935Z,18.76
2018-05-02T11:20:23.214Z,18.17
2018-05-02T11:22:51.495Z,18.77
2018-05-02T11:25:19.819Z,20.84
2018-05-02T11:27:48.099Z,20.09
2018-05-02T11:30:16.375Z,21.22
2018-05-02T11:32:44.701Z,19.38
2018-05-02T11:35:13.463Z,19.66
2018-05-02T11:37:41.743Z,20.04
2018-05-02T11:40:10.715Z,20.44
2018-05-02T11:42:39.007Z,19.74
2018-05-02T11:45:07.287Z,19.61
2018-05-02T11:47:35.625Z,17.52
2018-05-02T11:50:03.903Z,17.79
2018-05-02T11:52:32.343Z,18.07
2018-05-02T11:55:00.663Z,18.97
2018-05-02T11:57:28.946Z,21.03
2018-05-02T11:59:57.746Z,22.32
2018-05-02T12:02:26.082Z,21.22
2018-05-02T12:04:54.618Z,19.90
2018-05-02T12:07:22.939Z,19.87
2018-05-02T12:09:51.313Z,20.48
2018-05-02T12:12:19.939Z,20.11
2018-05-02T12:14:48.247Z,19.54
2018-05-02T12:17:16.534Z,21.26
2018-05-02T12:19:44.862Z,20.70
2018-05-02T12:22:13.164Z,21.63
2018-05-02T12:24:41.633Z,21.99
2018-05-02T12:27:09.950Z,21.65
2018-05-02T12:29:38.230Z,21.22
2018-05-02T12:32:06.967Z,20.94
2018-05-02T12:34:35.266Z,20.72
2018-05-02T12:37:03.538Z,21.06
2018-05-02T12:39:31.853Z,21.45
2018-05-02T12:42:00.135Z,19.70
2018-05-02T12:44:29.470Z,20.20
2018-05-02T12:46:57.786Z,21.07
2018-05-02T12:49:26.071Z,20.42
2018-05-02T12:51:54.348Z,20.59
2018-05-02T12:54:22.671Z,21.00
2018-05-02T12:56:50.955Z,20.01
2018-05-02T12:59:19.231Z,19.01
2018-05-02T13:01:47.582Z,19.83
2018-05-02T13:04:15.864Z,20.97
2018-05-02T13:06:44.148Z,21.45
2018-05-02T13:09:12.463Z,21.57
2018-05-02T13:11:40.742Z,20.86
2018-05-02T13:14:09.033Z,20.27
2018-05-02T13:16:37.364Z,20.19
2018-05-02T13:19:06.415Z,20.35
2018-05-02T13:21:35.026Z,20.74
2018-05-02T13:24:03.411Z,19.29
2018-05-02T13:26:31.695Z,18.79
2018-05-02T13:29:00.007Z,18.96
2018-05-02T13:31:28.379Z,19.47
2018-05-02T13:33:56.754Z,18.91
2018-05-02T13:36:25.042Z,18.67
2018-05-02T13:38:53.371Z,18.46
2018-05-02T13:41:21.721Z,18.88
2018-05-02T13:43:50.028Z,18.96
2018-05-02T13:46:18.491Z,19.00
2018-05-02T13:48:47.073Z,19.36
2018-05-02T13:51:15.359Z,19.17
2018-05-02T13:53:43.783Z,19.12
2018-05-02T13:56:12.714Z,18.69
2018-05-02T13:58:40.998Z,18.47
2018-05-02T14:01:09.334Z,18.88
2018-05-02T14:03:37.758Z,19.02
2018-05-02T14:06:06.642Z,18.15
2018-05-02T14:08:35.023Z,18.82
2018-05-02T14:11:03.254Z,18.76
2018-05-02T14:13:31.302Z,18.97
2018-05-02T14:16:00.109Z,20.18
2018-05-02T14:18:28.318Z,20.56
2018-05-02T14:20:56.604Z,21.47
2018-05-02T14:23:25.390Z,21.71
2018-05-02T14:25:53.670Z,22.38
2018-05-02T14:28:21.958Z,21.46
2018-05-02T14:30:50.294Z,21.28
2018-05-02T14:33:18.576Z,20.94
2018-05-02T14:35:46.867Z,19.87
2018-05-02T14:38:15.247Z,19.91
2018-05-02T14:40:43.512Z,19.87
2018-05-02T14:43:11.819Z,18.87
2018-05-02T14:45:40.133Z,18.65
2018-05-02T14:48:08.415Z,18.86
2018-05-02T14:50:37.132Z,19.08
2018-05-02T14:53:05.613Z,18.50
2018-05-02T14:55:33.829Z,18.64
2018-05-02T14:58:02.174Z,18.66
2018-05-02T15:00:30.578Z,18.42
2018-05-02T15:02:59.799Z,18.68
2018-05-02T15:05:28.254Z,19.13
2018-05-02T15:07:56.562Z,19.35
2018-05-02T15:10:25.618Z,19.29
2018-05-02T15:12:53.958Z,18.91
2018-05-02T15:15:22.747Z,18.90
2018-05-02T15:17:51.726Z,18.87
2018-05-02T15:20:20.022Z,18.99
2018-05-02T15:22:48.301Z,18.84
2018-05-02T15:25:17.015Z,18.69
2018-05-02T15:27:45.301Z,18.78
2018-05-02T15:30:13.583Z,18.57
2018-05-02T15:32:42.395Z,19.19
2018-05-02T15:35:11.119Z,18.63
2018-05-02T15:37:39.439Z,18.58
2018-05-02T15:40:07.766Z,18.88
2018-05-02T15:42:36.559Z,18.70
2018-05-02T15:45:04.846Z,18.60
2018-05-02T15:47:33.171Z,18.27
2018-05-02T15:50:01.630Z,17.99
2018-05-02T15:52:29.919Z,18.11
2018-05-02T15:54:58.555Z,18.09
2018-05-02T15:57:27.446Z,18.37
2018-05-02T15:59:56.578Z,18.69
2018-05-02T16:02:24.901Z,18.99
2018-05-02T16:04:53.186Z,18.94
2018-05-02T16:07:21.518Z,18.40
2018-05-02T16:09:50.258Z,18.26
2018-05-02T16:12:18.894Z,17.86
2018-05-02T16:14:47.203Z,18.12
2018-05-02T16:17:15.487Z,18.13
2018-05-02T16:19:43.854Z,17.76
2018-05-02T16:22:12.144Z,18.06
2018-05-02T16:24:40.513Z,18.16
2018-05-02T16:27:08.806Z,17.85
2018-05-02T16:29:37.956Z,18.09
2018-05-02T16:32:06.248Z,18.30
2018-05-02T16:34:34.526Z,18.17
2018-05-02T16:37:02.901Z,17.73
2018-05-02T16:39:31.207Z,17.49
2018-05-02T16:41:59.590Z,17.53
2018-05-02T16:44:27.894Z,17.27
2018-05-02T16:46:56.210Z,17.09
2018-05-02T16:49:24.787Z,16.99
2018-05-02T16:51:53.070Z,16.88
2018-05-02T16:54:21.382Z,16.80
2018-05-02T16:56:49.754Z,16.86
2018-05-02T16:59:18.943Z,16.65
2018-05-02T17:01:47.242Z,16.65
2018-05-02T17:04:16.212Z,16.84
2018-05-02T17:06:45.755Z,16.48
2018-05-02T17:09:14.047Z,16.30
2018-05-02T17:11:42.403Z,16.35
2018-05-02T17:14:10.752Z,16.31
2018-05-02T17:16:39.035Z,16.42
2018-05-02T17:19:07.379Z,16.31
2018-05-02T17:21:36.175Z,16.25
2018-05-02T17:24:04.469Z,16.26
2018-05-02T17:26:32.794Z,16.13
2018-05-02T17:29:01.079Z,15.97
2018-05-02T17:31:30.155Z,15.88
2018-05-02T17:33:59.898Z,16.00
2018-05-02T17:36:28.991Z,15.91
2018-05-02T17:38:57.762Z,15.87
2018-05-02T17:41:27.889Z,15.80
2018-05-02T17:43:56.974Z,15.84
2018-05-02T17:46:25.489Z,15.76
2018-05-02T17:48:54.710Z,15.73
2018-05-02T17:51:23.039Z,15.68
2018-05-02T17:53:51.711Z,15.61
2018-05-02T17:56:19.996Z,15.57
2018-05-02T17:58:48.338Z,15.53
2018-05-02T18:01:16.617Z,15.55
2018-05-02T18:03:44.975Z,15.48
2018-05-02T18:06:13.250Z,15.48
2018-05-02T18:08:41.723Z,15.44
2018-05-02T18:11:10.124Z,15.35
2018-05-02T18:13:39.696Z,15.39
2018-05-02T18:16:08.646Z,15.24
2018-05-02T18:18:37.763Z,15.16
2018-05-02T18:21:06.091Z,14.98
2018-05-02T18:23:34.378Z,14.86
2018-05-02T18:26:02.938Z,14.76
2018-05-02T18:28:31.431Z,14.70
2018-05-02T18:31:01.734Z,14.68
2018-05-02T18:33:30.230Z,14.63
2018-05-02T18:35:58.561Z,14.58
2018-05-02T18:38:28.063Z,14.59
2018-05-02T18:40:56.506Z,14.60
2018-05-02T18:43:26.102Z,14.57
2018-05-02T18:45:54.603Z,14.57
2018-05-02T18:48:23.683Z,14.53
2018-05-02T18:50:53.572Z,14.51
2018-05-02T18:53:22.203Z,14.46
2018-05-02T18:55:52.031Z,14.42
2018-05-02T18:58:21.227Z,14.39
2018-05-02T19:00:49.372Z,14.42
2018-05-02T19:03:17.606Z,14.42
2018-05-02T19:05:46.081Z,14.42
2018-05-02T19:08:14.430Z,14.46
2018-05-02T19:10:42.731Z,14.45
2018-05-02T19:13:11.012Z,14.44
2018-05-02T19:15:39.155Z,14.45
2018-05-02T19:18:12.823Z,14.40
2018-05-02T19:20:41.134Z,14.41
2018-05-02T19:23:10.099Z,14.37
2018-05-02T19:25:43.857Z,14.30
2018-05-02T19:28:12.246Z,14.30
2018-05-02T19:30:40.889Z,14.29
2018-05-02T19:33:14.615Z,14.23
2018-05-02T19:35:43.551Z,14.16
2018-05-02T19:38:11.835Z,14.12
2018-05-02T19:40:45.696Z,14.12
2018-05-02T19:43:19.414Z,14.06
2018-05-02T19:45:47.718Z,14.08
2018-05-02T19:48:16.216Z,14.05
2018-05-02T19:50:50.490Z,13.94
2018-05-02T19:53:18.819Z,13.91
2018-05-02T19:55:47.239Z,13.92
2018-05-02T19:58:15.532Z,13.82
2018-05-02T20:00:49.399Z,13.85
2018-05-02T20:03:17.943Z,13.80
2018-05-02T20:05:46.438Z,13.83
2018-05-02T20:08:21.547Z,13.69
2018-05-02T20:10:55.543Z,13.62
2018-05-02T20:13:29.671Z,13.57
2018-05-02T20:15:58.500Z,13.50
2018-05-02T20:18:27.091Z,13.48
2018-05-02T20:20:55.691Z,13.46
2018-05-02T20:23:24.347Z,13.45
2018-05-02T20:25:53.139Z,13.49
2018-05-02T20:28:21.827Z,13.46
2018-05-02T20:30:50.452Z,13.37
2018-05-02T20:33:18.714Z,13.34
2018-05-02T20:35:47.227Z,13.27
2018-05-02T20:38:15.511Z,13.25
2018-05-02T20:40:44.220Z,13.20
2018-05-02T20:43:12.510Z,13.17
2018-05-02T20:45:40.801Z,13.02
2018-05-02T20:48:09.134Z,13.00
2018-05-02T20:50:38.370Z,12.94
2018-05-02T20:53:07.324Z,12.92
2018-05-02T20:55:35.415Z,12.85
2018-05-02T20:58:04.495Z,12.77
2018-05-02T21:00:32.586Z,12.69
2018-05-02T21:03:01.370Z,12.65
2018-05-02T21:05:29.872Z,12.64
2018-05-02T21:07:58.262Z,12.60
2018-05-02T21:10:27.096Z,12.60
2018-05-02T21:12:55.381Z,12.57
2018-05-02T21:15:23.716Z,12.61
2018-05-02T21:17:52.870Z,12.57
2018-05-02T21:20:21.026Z,12.58
2018-05-02T21:22:49.693Z,12.54
2018-05-02T21:25:18.014Z,12.44
2018-05-02T21:27:46.315Z,12.36
2018-05-02T21:30:14.592Z,12.24
2018-05-02T21:32:43.279Z,12.17
2018-05-02T21:35:11.567Z,12.19
2018-05-02T21:37:40.611Z,12.18
2018-05-02T21:40:08.918Z,12.14
2018-05-02T21:42:37.194Z,12.18
2018-05-02T21:45:05.799Z,12.29
2018-05-02T21:47:34.275Z,12.29
2018-05-02T21:50:02.874Z,12.13
2018-05-02T21:52:31.947Z,12.01
2018-05-02T21:55:00.286Z,12.05
2018-05-02T21:57:28.579Z,12.06
2018-05-02T21:59:57.087Z,12.03
2018-05-02T22:02:26.250Z,12.02
2018-05-02T22:04:54.535Z,11.97
2018-05-02T22:07:22.643Z,11.87
2018-05-02T22:09:51.523Z,11.90
2018-05-02T22:12:21.560Z,11.83
2018-05-02T22:14:50.512Z,11.79
2018-05-02T22:17:19.063Z,11.80
2018-05-02T22:19:47.387Z,11.89
2018-05-02T22:22:15.834Z,11.96
2018-05-02T22:24:44.113Z,11.89
2018-05-02T22:27:12.471Z,11.95
2018-05-02T22:29:40.799Z,11.90
2018-05-02T22:32:09.079Z,11.81
2018-05-02T22:34:37.410Z,11.77
2018-05-02T22:37:05.702Z,11.74
2018-05-02T22:39:33.987Z,11.72
2018-05-02T22:42:02.304Z,11.66
2018-05-02T22:44:30.795Z,11.58
2018-05-02T22:46:59.111Z,11.48
2018-05-02T22:49:27.399Z,11.36
2018-05-02T22:51:55.938Z,11.41
2018-05-02T22:54:24.254Z,11.53
2018-05-02T22:56:52.540Z,11.65
2018-05-02T22:59:21.335Z,11.78
2018-05-02T23:01:50.076Z,11.97
2018-05-02T23:04:18.383Z,12.08
2018-05-02T23:06:46.682Z,12.03
2018-05-02T23:09:15.037Z,11.96
2018-05-02T23:11:43.322Z,11.90
2018-05-02T23:14:11.598Z,11.86
2018-05-02T23:16:39.927Z,11.90
2018-05-02T23:19:08.219Z,11.88
2018-05-02T23:21:36.526Z,11.98
2018-05-02T23:24:04.843Z,11.90
2018-05-02T23:26:33.123Z,11.87
2018-05-02T23:29:01.486Z,11.87
2018-05-02T23:31:29.950Z,11.79
2018-05-02T23:33:58.722Z,11.76
2018-05-02T23:36:27.007Z,11.79
2018-05-02T23:38:55.370Z,11.85
2018-05-02T23:41:23.681Z,11.96
2018-05-02T23:43:51.947Z,12.04
2018-05-02T23:46:20.481Z,12.01
2018-05-02T23:48:48.766Z,12.28
2018-05-02T23:51:17.059Z,12.52
2018-05-02T23:53:45.359Z,12.74
2018-05-02T23:56:13.651Z,12.73
2018-05-02T23:58:41.942Z,12.51
